Time;durP1;ratioP1;P1;durP2;ratioP2;P2;SDS_P1;SDS_P2;PMS_P1;PMS_P2;Temp;Humidity;BMP_temperature;BMP_pressure;BME280_temperature;BME280_humidity;BME280_pressure;Samples;Min_cycle;Max_cycle;Signal;HPM_P1;HPM_P2
2022/05/03 00:00:10;;;;;;;11.43;6.40;;;;;;;14.04;69.79;100035.84;5092947;28;20055;-73
2022/05/03 00:02:48;;;;;;;11.02;6.82;;;;;;;14.04;69.85;100038.50;5092976;28;20047;-74
2022/05/03 00:05:25;;;;;;;9.82;6.10;;;;;;;14.02;70.41;100031.56;5074977;28;20140;-74
2022/05/03 00:08:03;;;;;;;8.85;5.95;;;;;;;14.10;70.21;100037.19;5092803;28;20046;-74
2022/05/03 00:10:47;;;;;;;9.70;6.18;;;;;;;13.90;71.11;100032.53;5074750;28;20078;-72
2022/05/03 00:13:19;;;;;;;12.55;6.70;;;;;;;13.87;71.64;100030.06;5092540;28;20051;-71
2022/05/03 00:15:49;;;;;;;12.48;6.65;;;;;;;13.85;71.92;100034.69;5074191;28;20060;-71
2022/05/03 00:18:18;;;;;;;13.73;6.68;;;;;;;13.79;72.09;100033.31;5093132;28;20553;-72
2022/05/03 00:20:47;;;;;;;11.52;6.63;;;;;;;13.71;72.85;100027.72;5096162;28;20044;-72
2022/05/03 00:23:16;;;;;;;10.70;6.32;;;;;;;13.64;73.53;100023.81;5078184;28;20044;-72
2022/05/03 00:25:46;;;;;;;12.57;7.05;;;;;;;13.59;74.68;100024.13;5077784;28;20416;-72
2022/05/03 00:28:15;;;;;;;12.93;7.45;;;;;;;13.57;75.29;100018.03;5078181;28;20127;-71
2022/05/03 00:30:43;;;;;;;10.93;6.75;;;;;;;13.51;77.63;100018.53;5077777;28;20139;-75
2022/05/03 00:33:11;;;;;;;10.93;7.10;;;;;;;13.51;77.92;100015.84;5095872;28;20040;-71
2022/05/03 00:35:41;;;;;;;10.60;6.80;;;;;;;13.56;77.12;100016.34;5096019;28;20052;-71
2022/05/03 00:38:09;;;;;;;13.32;6.85;;;;;;;13.52;77.57;100012.19;5095748;28;20062;-71
2022/05/03 00:40:44;;;;;;;10.68;7.10;;;;;;;13.47;77.87;100017.03;5095980;28;20478;-71
2022/05/03 00:43:19;;;;;;;14.13;7.93;;;;;;;13.49;77.81;100014.22;5096146;28;20041;-72
2022/05/03 00:45:51;;;;;;;11.93;6.88;;;;;;;13.38;79.38;100017.72;5096114;28;20044;-72
2022/05/03 00:48:35;;;;;;;10.15;6.75;;;;;;;13.39;79.59;100022.13;5096051;28;20044;-72
2022/05/03 00:51:10;;;;;;;10.00;7.07;;;;;;;13.37;80.29;100021.38;5095727;28;20035;-72
2022/05/03 00:53:53;;;;;;;12.63;7.22;;;;;;;13.34;79.70;100021.63;5095941;28;20040;-72
2022/05/03 00:56:38;;;;;;;11.70;6.95;;;;;;;13.48;79.38;100013.38;5077387;28;20374;-71
2022/05/03 00:59:17;;;;;;;9.50;6.78;;;;;;;13.57;77.21;100012.69;5095448;28;20097;-72
2022/05/03 01:01:55;;;;;;;11.13;6.43;;;;;;;13.43;78.05;100011.06;5095182;28;20040;-73
2022/05/03 01:04:26;;;;;;;13.65;7.18;;;;;;;13.32;78.56;100007.50;5095564;28;20040;-74
2022/05/03 01:07:10;;;;;;;11.88;7.57;;;;;;;13.24;79.95;100010.75;5095326;28;20071;-72
2022/05/03 01:09:41;;;;;;;12.00;6.93;;;;;;;13.23;80.89;100013.53;5095413;28;20044;-72
2022/05/03 01:12:18;;;;;;;12.93;7.60;;;;;;;13.20;81.07;100011.06;5095223;28;20051;-72
2022/05/03 01:15:06;;;;;;;12.93;7.30;;;;;;;13.10;82.80;100014.41;5095151;28;20044;-72
2022/05/03 01:17:44;;;;;;;11.82;7.30;;;;;;;13.10;82.01;100008.19;5095401;28;20533;-71
2022/05/03 01:20:15;;;;;;;11.23;7.28;;;;;;;13.17;81.38;100012.97;5095343;28;20439;-71
2022/05/03 01:23:20;;;;;;;12.48;7.65;;;;;;;13.34;80.46;100016.25;5077212;28;20105;-70
2022/05/03 01:25:58;;;;;;;14.95;7.20;;;;;;;13.36;80.60;100017.84;5094697;28;20047;-72
2022/05/03 01:28:30;;;;;;;10.07;6.72;;;;;;;13.62;78.70;100013.19;5095133;28;20050;-71
2022/05/03 01:31:06;;;;;;;12.60;7.30;;;;;;;13.65;78.25;100015.63;5094576;28;20089;-70
2022/05/03 01:33:40;;;;;;;12.73;6.50;;;;;;;13.59;78.62;100010.72;5094755;28;20223;-71
2022/05/03 01:36:10;;;;;;;12.95;6.45;;;;;;;13.42;79.77;100012.03;5094218;28;20054;-71
2022/05/03 01:39:01;;;;;;;13.23;8.00;;;;;;;13.14;81.69;100013.22;5076512;28;20052;-71
2022/05/03 01:41:39;;;;;;;11.07;7.07;;;;;;;13.17;81.96;100017.50;5094821;28;20047;-71
2022/05/03 01:44:15;;;;;;;10.20;7.25;;;;;;;13.25;81.32;100014.28;5094472;28;20054;-71
2022/05/03 01:46:46;;;;;;;10.70;7.43;;;;;;;13.06;83.05;100012.09;5094781;28;20044;-71
2022/05/03 01:52:39;;;;;;;10.80;7.47;;;;;;;13.09;84.49;100020.72;5094462;28;20064;-71
2022/05/03 01:55:28;;;;;;;11.43;7.45;;;;;;;13.26;82.59;100022.19;5094208;28;20051;-71
2022/05/03 01:58:11;;;;;;;12.23;7.15;;;;;;;13.46;80.94;100013.50;5076204;28;20052;-71
2022/05/03 02:00:44;;;;;;;13.27;7.50;;;;;;;13.50;80.44;100016.78;5094219;28;20058;-71
2022/05/03 02:03:25;;;;;;;;;;;;;;;13.39;81.57;100019.44;5076425;28;20533;-71
2022/05/03 02:06:01;;;;;;;9.90;6.82;;;;;;;13.26;81.98;100016.84;5093903;28;20311;-71
2022/05/03 02:08:52;;;;;;;11.02;7.13;;;;;;;13.00;84.16;100021.41;5094414;28;20040;-71
2022/05/03 02:11:41;;;;;;;10.18;7.43;;;;;;;13.00;83.89;100018.72;5094316;28;20040;-71
2022/05/03 02:17:11;;;;;;;12.23;7.57;;;;;;;12.95;85.15;100014.69;5093524;28;20113;-71
2022/05/03 02:19:54;;;;;;;10.52;6.63;;;;;;;12.98;85.32;100020.69;5093827;28;20040;-71
2022/05/03 02:22:41;;;;;;;12.75;7.43;;;;;;;12.80;86.89;100024.69;5094219;28;20461;-71
2022/05/03 02:25:17;;;;;;;13.43;7.88;;;;;;;12.80;85.89;100028.22;5093882;28;20365;-71
2022/05/03 02:27:50;;;;;;;13.25;7.90;;;;;;;12.69;86.31;100029.97;5075825;28;20052;-71
2022/05/03 02:30:19;;;;;;;11.52;7.78;;;;;;;12.63;86.63;100025.06;5094140;28;20126;-72
2022/05/03 02:33:00;;;;;;;11.07;8.18;;;;;;;12.55;86.91;100023.81;5093944;28;20426;-73
2022/05/03 02:35:34;;;;;;;11.32;7.38;;;;;;;12.42;88.08;100025.63;5093528;28;20066;-73
2022/05/03 02:38:07;;;;;;;11.90;7.43;;;;;;;12.60;86.62;100016.28;5075488;28;20439;-73
2022/05/03 02:40:44;;;;;;;11.68;8.18;;;;;;;12.47;87.26;100020.84;5093697;28;20047;-72
2022/05/03 02:43:16;;;;;;;13.20;8.00;;;;;;;12.30;89.08;100021.16;5093469;28;20119;-72
2022/05/03 02:45:51;;;;;;;12.02;8.15;;;;;;;12.33;89.09;100024.47;5093720;28;20048;-72
2022/05/03 02:48:27;;;;;;;11.35;8.35;;;;;;;12.32;89.58;100024.59;5093787;28;20077;-72
2022/05/03 02:51:03;;;;;;;12.75;8.15;;;;;;;12.37;88.76;100022.44;5075274;28;20048;-72
2022/05/03 02:53:43;;;;;;;12.15;8.40;;;;;;;12.31;89.09;100025.56;5075556;28;20072;-72
2022/05/03 02:56:21;;;;;;;12.13;8.23;;;;;;;12.14;92.07;100020.53;5093169;28;20055;-72
2022/05/03 02:59:03;;;;;;;11.15;8.02;;;;;;;12.16;91.57;100026.63;5093530;28;20063;-72
2022/05/03 03:01:50;;;;;;;13.20;7.85;;;;;;;12.32;89.71;100028.13;5093554;28;20051;-72
2022/05/03 03:04:35;;;;;;;11.75;8.50;;;;;;;12.22;91.05;100019.03;5075557;28;20052;-72
2022/05/03 03:07:06;;;;;;;12.02;8.07;;;;;;;12.32;89.76;100024.59;5093231;28;20036;-72
2022/05/03 03:09:42;;;;;;;14.15;8.93;;;;;;;12.26;90.52;100017.00;5093495;28;20036;-72
2022/05/03 03:12:26;;;;;;;12.50;7.82;;;;;;;12.17;91.35;100020.34;5092952;28;20074;-72
2022/05/03 03:15:06;;;;;;;14.00;7.95;;;;;;;12.10;91.94;100009.22;5092910;28;20064;-72
2022/05/03 03:17:37;;;;;;;16.98;8.80;;;;;;;12.00;94.67;100017.00;5093553;28;20497;-72
2022/05/03 03:20:07;;;;;;;12.75;8.45;;;;;;;11.96;97.08;100020.84;5093096;28;20044;-72
2022/05/03 03:22:39;;;;;;;11.93;8.60;;;;;;;11.96;96.71;100015.50;5075355;28;20412;-72
2022/05/03 03:25:11;;;;;;;12.68;8.52;;;;;;;12.22;93.18;100020.84;5074973;28;20105;-73
2022/05/03 03:27:40;;;;;;;13.40;8.38;;;;;;;12.23;92.62;100019.88;5075345;28;20116;-73
2022/05/03 03:30:11;;;;;;;12.63;8.27;;;;;;;12.20;93.40;100020.13;5074752;28;20048;-72
2022/05/03 03:32:42;;;;;;;12.93;8.90;;;;;;;11.98;95.23;100024.28;5075370;28;20136;-72
2022/05/03 03:35:13;;;;;;;13.77;9.38;;;;;;;11.82;98.01;100028.97;5093093;28;20046;-71
2022/05/03 03:37:45;;;;;;;14.23;8.43;;;;;;;12.09;95.97;100030.72;5093281;28;20457;-71
2022/05/03 03:40:14;;;;;;;15.48;9.18;;;;;;;11.92;97.33;100035.41;5074773;28;20456;-73
2022/05/03 03:42:44;;;;;;;12.85;8.68;;;;;;;11.78;100.00;100034.63;5093197;28;20044;-71
2022/05/03 03:45:14;;;;;;;18.17;9.02;;;;;;;11.90;99.87;100031.97;5092808;28;20389;-71
2022/05/03 03:47:45;;;;;;;12.40;8.18;;;;;;;11.92;99.60;100039.88;5093189;28;20044;-71
2022/05/03 03:50:14;;;;;;;14.30;8.80;;;;;;;11.89;100.00;100040.97;5075065;28;20401;-71
2022/05/03 03:52:46;;;;;;;15.07;8.80;;;;;;;11.88;100.00;100041.94;5092681;28;20048;-71
2022/05/03 03:55:15;;;;;;;18.63;9.75;;;;;;;11.73;100.00;100045.59;5096563;28;20135;-71
2022/05/03 03:57:44;;;;;;;14.68;8.95;;;;;;;11.91;100.00;100055.06;5078533;28;20044;-71
2022/05/03 04:00:14;;;;;;;14.02;8.65;;;;;;;11.93;99.43;100055.81;5096658;28;20063;-71
2022/05/03 04:02:44;;;;;;;15.10;8.88;;;;;;;11.84;100.00;100061.78;5078745;28;20140;-71
2022/05/03 04:05:15;;;;;;;15.07;8.50;;;;;;;12.24;96.44;100051.00;5096525;28;20050;-69
2022/05/03 04:07:47;;;;;;;14.23;8.23;;;;;;;12.80;89.95;100057.66;5096639;28;20044;-70
2022/05/03 04:10:16;;;;;;;12.95;8.82;;;;;;;13.18;85.77;100057.53;5096481;28;20122;-70
2022/05/03 04:12:45;;;;;;;14.18;8.43;;;;;;;13.51;81.96;100050.69;5096561;28;20058;-69
2022/05/03 04:15:13;;;;;;;15.32;8.65;;;;;;;13.69;80.00;100054.63;5078075;28;20052;-69
2022/05/03 04:17:43;;;;;;;14.20;9.05;;;;;;;14.02;77.38;100053.03;5077991;28;20063;-69
2022/05/03 04:20:15;;;;;;;15.30;8.52;;;;;;;14.35;75.42;100051.34;5077849;28;20106;-69
2022/05/03 04:22:43;;;;;;;12.10;8.93;;;;;;;14.69;73.34;100055.78;5078269;28;20130;-69
2022/05/03 04:25:14;;;;;;;17.15;8.57;;;;;;;14.73;71.68;100057.22;5096081;28;20111;-74
2022/05/03 04:27:43;;;;;;;14.50;8.88;;;;;;;15.02;71.53;100052.19;5078222;28;20075;-69
2022/05/03 04:30:12;;;;;;;16.65;8.77;;;;;;;15.00;71.62;100058.66;5077816;28;20452;-69
2022/05/03 04:32:40;;;;;;;18.52;8.88;;;;;;;15.13;71.33;100064.72;5077957;28;20048;-71
2022/05/03 04:35:09;;;;;;;11.52;8.60;;;;;;;15.44;69.25;100057.66;5095516;28;20450;-73
2022/05/03 04:37:38;;;;;;;15.38;8.63;;;;;;;15.05;69.92;100056.44;5077861;28;20063;-72
2022/05/03 04:40:07;;;;;;;14.82;9.35;;;;;;;15.35;69.68;100059.31;5077516;28;20050;-72
2022/05/03 04:42:37;;;;;;;18.20;9.27;;;;;;;15.73;68.03;100057.97;5096060;28;20443;-71
2022/05/03 04:45:06;;;;;;;11.80;8.52;;;;;;;15.97;64.52;100063.94;5095669;28;20044;-73
2022/05/03 04:47:35;;;;;;;13.40;8.48;;;;;;;15.98;65.55;100062.09;5077827;28;20052;-72
2022/05/03 04:50:03;;;;;;;15.50;8.90;;;;;;;16.24;64.30;100057.16;5095665;28;20040;-73
2022/05/03 04:52:32;;;;;;;12.32;8.70;;;;;;;15.90;64.74;100060.06;5096069;28;20124;-70
2022/05/03 04:55:00;;;;;;;12.50;8.05;;;;;;;15.62;64.98;100066.06;5077483;28;20048;-80
2022/05/03 04:57:28;;;;;;;17.00;8.95;;;;;;;15.25;67.43;100055.69;5095759;28;20044;-70
2022/05/03 05:00:01;;;;;;;14.63;9.00;;;;;;;15.08;67.73;100056.22;5077549;28;20127;-70
2022/05/03 05:02:30;;;;;;;11.10;8.55;;;;;;;15.13;67.59;100051.28;5095688;28;20139;-71
2022/05/03 05:04:58;;;;;;;10.90;8.25;;;;;;;15.09;67.35;100057.91;5076958;28;20090;-72
2022/05/03 05:07:26;;;;;;;11.95;8.80;;;;;;;15.36;67.10;100058.31;5095392;28;20067;-73
2022/05/03 05:12:40;;;;;;;11.55;7.82;;;;;;;15.86;63.79;100064.00;5077479;28;20075;-71
2022/05/03 05:15:11;;;;;;;15.48;8.00;;;;;;;16.42;61.44;100052.03;5076918;28;20122;-72
2022/05/03 05:17:39;;;;;;;11.80;8.00;;;;;;;16.43;61.12;100054.56;5095289;28;20055;-71
2022/05/03 05:20:08;;;;;;;12.07;8.00;;;;;;;17.03;58.38;100052.84;5094957;28;20040;-73
2022/05/03 05:22:36;;;;;;;12.40;7.68;;;;;;;17.30;57.57;100054.88;5095212;28;20036;-73
2022/05/03 05:25:05;;;;;;;11.32;7.57;;;;;;;18.15;54.54;100062.25;5076728;28;20048;-76
2022/05/03 05:27:35;;;;;;;10.80;7.03;;;;;;;18.71;52.75;100052.41;5077073;28;20059;-73
2022/05/03 05:30:03;;;;;;;14.00;7.43;;;;;;;18.92;51.15;100058.44;5076592;28;20558;-83
2022/05/03 05:32:33;;;;;;;14.63;7.47;;;;;;;19.69;49.23;100051.69;5094694;28;20046;-74
2022/05/03 05:35:01;;;;;;;9.93;7.07;;;;;;;19.99;47.84;100053.97;5094432;28;20485;-75
2022/05/03 05:37:30;;;;;;;13.32;7.35;;;;;;;20.11;47.79;100053.72;5076391;28;20060;-75
2022/05/03 05:39:58;;;;;;;12.93;7.55;;;;;;;19.87;48.38;100055.19;5076605;28;20142;-73
2022/05/03 05:42:26;;;;;;;12.10;7.72;;;;;;;20.35;47.05;100048.44;5076076;28;20097;-72
2022/05/03 05:44:55;;;;;;;10.60;7.35;;;;;;;20.67;45.76;100055.94;5076628;28;20055;-73
2022/05/03 05:47:23;;;;;;;11.45;7.22;;;;;;;21.29;44.30;100050.25;5094408;28;20075;-73
2022/05/03 05:49:53;;;;;;;11.32;7.22;;;;;;;21.89;42.70;100056.25;5076560;28;20079;-74
2022/05/03 05:55:09;;;;;;;11.82;6.82;;;;;;;21.39;43.49;100053.69;5075864;28;20458;-74
2022/05/03 05:57:37;;;;;;;9.88;7.18;;;;;;;21.50;42.88;100045.22;5094092;28;20032;-74
2022/05/03 06:00:07;;;;;;;10.93;6.90;;;;;;;21.70;42.10;100052.00;5093926;28;20431;-74
2022/05/03 06:02:36;;;;;;;11.73;6.57;;;;;;;22.00;42.49;100044.19;5076082;28;20044;-72
2022/05/03 06:05:06;;;;;;;11.77;6.47;;;;;;;22.23;41.30;100047.97;5094320;28;20090;-72
2022/05/03 06:07:35;;;;;;;9.93;6.70;;;;;;;22.37;40.15;100048.25;5076135;28;20044;-73
2022/05/03 06:10:19;;;;;;;11.02;5.85;;;;;;;23.11;39.10;100052.44;5075748;28;20485;-73
2022/05/03 06:12:47;;;;;;;9.45;5.75;;;;;;;23.47;37.53;100051.91;5075741;28;20436;-73
2022/05/03 06:15:16;;;;;;;8.82;5.53;;;;;;;23.05;38.29;100050.44;5093703;28;20044;-76
2022/05/03 06:17:44;;;;;;;8.70;6.10;;;;;;;22.26;39.31;100046.75;5093339;28;20048;-72
2022/05/03 06:20:14;;;;;;;10.88;6.10;;;;;;;22.60;39.53;100051.97;5075443;28;20071;-75
2022/05/03 06:22:42;;;;;;;9.73;5.65;;;;;;;22.66;39.42;100045.81;5093661;28;20067;-73
2022/05/03 06:25:11;;;;;;;9.63;6.03;;;;;;;22.58;39.23;100048.53;5075504;28;20082;-75
2022/05/03 06:27:39;;;;;;;9.10;6.53;;;;;;;22.60;39.33;100048.41;5075693;28;20051;-74
2022/05/03 06:30:09;;;;;;;9.93;5.72;;;;;;;22.37;39.65;100050.97;5090613;28;20048;-71
2022/05/03 06:32:39;;;;;;;8.68;5.90;;;;;;;22.94;38.17;100048.09;5075744;28;20101;-70
2022/05/03 06:35:08;;;;;;;8.73;5.43;;;;;;;23.20;38.17;100053.25;5093887;28;20040;-70
2022/05/03 06:37:38;;;;;;;8.52;5.55;;;;;;;23.72;37.43;100049.88;5093823;28;20054;-73
2022/05/03 06:40:09;;;;;;;8.95;5.47;;;;;;;23.92;37.27;100051.91;5075611;28;20055;-71
2022/05/03 06:42:38;;;;;;;8.93;5.70;;;;;;;24.16;37.13;100056.31;5075913;28;20138;-71
2022/05/03 06:45:08;;;;;;;7.72;5.93;;;;;;;23.86;37.45;100052.66;5075413;28;20101;-71
2022/05/03 06:47:44;;;;;;;8.43;5.90;;;;;;;22.91;38.39;100048.47;5075660;28;20451;-71
2022/05/03 06:50:12;;;;;;;10.23;6.30;;;;;;;23.18;38.47;100052.59;5075123;28;20079;-74
2022/05/03 06:52:42;;;;;;;11.13;6.38;;;;;;;23.02;38.06;100056.22;5075718;28;20051;-73
2022/05/03 06:55:12;;;;;;;11.25;6.20;;;;;;;22.19;39.57;100052.03;5093444;28;20051;-80
2022/05/03 06:57:40;;;;;;;11.90;6.50;;;;;;;22.33;39.88;100050.50;5075385;28;20048;-71
2022/05/03 07:00:09;;;;;;;13.30;6.28;;;;;;;22.33;39.25;100044.22;5074878;28;20047;-71
2022/05/03 18:21:09;;;;;;;6.73;3.23;;;;;;;18.38;51.20;100060.06;5305911;22;20052;-71
2022/05/03 18:23:38;;;;;;;5.90;3.10;;;;;;;18.37;51.10;100068.31;5089994;28;20493;-70
2022/05/03 18:26:07;;;;;;;7.15;3.53;;;;;;;18.34;51.78;100068.63;5076474;28;20051;-71
2022/05/03 18:28:36;;;;;;;5.47;3.20;;;;;;;18.34;51.34;100079.41;5075225;28;20097;-72
2022/05/03 18:31:06;;;;;;;8.15;3.42;;;;;;;18.36;52.97;100085.50;5075622;28;20052;-71
2022/05/03 18:33:34;;;;;;;6.00;3.67;;;;;;;18.20;55.60;100083.41;5074998;28;20390;-70
2022/05/03 18:36:03;;;;;;;6.55;4.15;;;;;;;17.98;57.80;100092.69;5093753;28;20492;-71
2022/05/03 18:38:33;;;;;;;7.72;4.10;;;;;;;17.85;58.58;100097.50;5092149;28;20048;-72
2022/05/03 18:41:02;;;;;;;9.18;4.20;;;;;;;17.68;58.84;100099.91;5093494;28;20050;-70
2022/05/03 18:43:30;;;;;;;7.45;4.40;;;;;;;17.76;57.86;100101.94;5093507;28;20063;-75
2022/05/03 18:45:58;;;;;;;8.07;4.47;;;;;;;17.62;58.24;100103.16;5081338;28;20055;-73
2022/05/03 18:48:27;;;;;;;7.78;4.15;;;;;;;17.60;57.28;100102.44;5072098;28;20060;-72
2022/05/03 18:50:56;;;;;;;5.70;3.65;;;;;;;17.49;56.85;100105.28;5072757;28;20075;-72
2022/05/03 18:53:25;;;;;;;5.75;3.42;;;;;;;17.57;56.43;100107.28;5073458;28;20488;-73
2022/05/03 18:55:53;;;;;;;6.38;3.55;;;;;;;17.42;56.58;100115.75;5072981;28;20040;-74
2022/05/03 18:58:28;;;;;;;5.10;3.50;;;;;;;17.46;56.36;100121.72;5072007;28;20500;-70
2022/05/03 19:01:03;;;;;;;6.63;3.80;;;;;;;17.48;55.68;100118.91;5072354;28;20450;-72
2022/05/03 19:03:32;;;;;;;7.05;3.80;;;;;;;17.50;57.16;100122.31;5088314;28;20055;-73
2022/05/03 19:06:04;;;;;;;6.43;3.78;;;;;;;17.44;56.82;100126.41;5071873;28;20055;-76
2022/05/03 19:08:33;;;;;;;6.63;3.92;;;;;;;17.47;56.43;100118.03;5069680;28;20052;-77
2022/05/03 19:11:03;;;;;;;6.03;3.75;;;;;;;17.45;57.18;100120.00;5087216;28;20105;-72
2022/05/03 19:13:32;;;;;;;7.65;4.00;;;;;;;17.48;56.12;100116.19;5066350;28;20086;-76
2022/05/03 19:16:00;;;;;;;7.88;4.28;;;;;;;17.62;55.43;100115.78;5073960;28;20094;-75
2022/05/03 19:18:28;;;;;;;8.27;4.00;;;;;;;17.51;56.00;100124.00;5091797;28;20055;-75
2022/05/03 19:20:57;;;;;;;6.72;3.80;;;;;;;17.40;56.62;100116.91;5073581;28;20060;-74
2022/05/03 19:23:26;;;;;;;7.60;4.45;;;;;;;17.38;57.42;100116.19;5094021;28;20051;-77
2022/05/03 19:31:28;;;;;;;7.95;4.38;;;;;;;17.12;60.11;100126.59;5080520;28;20048;-75
2022/05/03 19:33:56;;;;;;;9.82;5.32;;;;;;;17.16;61.15;100115.41;5080330;28;20149;-75
2022/05/03 19:36:25;;;;;;;9.55;5.78;;;;;;;17.21;62.64;100119.53;5095471;28;20083;-75
2022/05/03 19:38:54;;;;;;;9.95;5.90;;;;;;;17.11;63.17;100112.28;5077879;28;20040;-79
2022/05/03 19:41:23;;;;;;;10.68;5.80;;;;;;;17.16;64.18;100107.31;5078798;28;20036;-73
2022/05/03 19:43:54;;;;;;;10.73;5.35;;;;;;;17.16;63.81;100110.00;5070393;28;20103;-74
2022/05/03 19:46:27;;;;;;;9.32;5.22;;;;;;;17.14;63.21;100106.59;5078148;28;20123;-76
2022/05/03 19:48:56;;;;;;;10.63;6.20;;;;;;;17.11;63.87;100111.44;5076866;28;20048;-74
2022/05/03 19:51:29;;;;;;;15.55;7.10;;;;;;;17.06;63.99;100113.66;5076712;28;20052;-75
2022/05/03 19:54:14;;;;;;;19.00;5.55;;;;;;;17.08;64.71;100115.25;5078425;28;20051;-75
2022/05/03 19:57:03;;;;;;;9.23;5.30;;;;;;;17.11;64.89;100117.66;5078057;28;20037;-74
2022/05/03 19:59:42;;;;;;;13.95;5.80;;;;;;;17.12;65.07;100122.06;5076939;28;20044;-75
2022/05/03 20:02:12;;;;;;;12.20;5.32;;;;;;;17.07;64.57;100118.91;5078036;28;20075;-75
2022/05/03 20:04:46;;;;;;;12.75;5.53;;;;;;;16.99;65.59;100116.09;5078625;28;20036;-73
2022/05/03 20:07:27;;;;;;;9.48;5.60;;;;;;;16.91;65.79;100115.06;5087475;28;20455;-76
2022/05/03 20:10:15;;;;;;;12.53;6.17;;;;;;;16.88;66.13;100124.22;5079804;28;20060;-71
2022/05/03 20:13:08;;;;;;;12.77;6.43;;;;;;;16.90;65.41;100124.13;5080311;28;20054;-73
2022/05/03 20:16:04;;;;;;;8.20;5.70;;;;;;;16.92;64.75;100130.22;5098713;28;20477;-74
2022/05/03 20:18:57;;;;;;;10.88;6.43;;;;;;;16.92;65.16;100130.22;5098290;28;20040;-75
2022/05/03 20:21:50;;;;;;;8.57;5.35;;;;;;;16.91;64.71;100136.59;5097823;28;20059;-74
2022/05/03 20:24:29;;;;;;;12.52;6.13;;;;;;;16.94;64.72;100137.19;5079890;28;20043;-74
2022/05/03 20:26:57;;;;;;;9.57;5.75;;;;;;;16.94;64.77;100130.94;5080032;28;20047;-75
2022/05/03 20:29:26;;;;;;;11.90;5.97;;;;;;;16.85;66.31;100129.91;5098216;28;20515;-76
2022/05/03 20:32:01;;;;;;;10.70;5.28;;;;;;;16.76;67.50;100139.66;5098816;28;20032;-72
2022/05/03 20:34:30;;;;;;;10.05;5.90;;;;;;;16.74;68.16;100135.38;5078948;28;20125;-75
2022/05/03 20:36:59;;;;;;;13.38;5.13;;;;;;;16.71;66.79;100135.66;5076151;28;20400;-75
2022/05/03 20:39:27;;;;;;;9.00;5.28;;;;;;;16.77;66.30;100141.34;5094678;28;20055;-75
2022/05/03 20:41:56;;;;;;;6.90;4.47;;;;;;;16.85;64.73;100138.00;5095150;28;20044;-75
2022/05/03 20:44:25;;;;;;;11.73;4.95;;;;;;;16.83;65.63;100135.44;5094603;28;20455;-74
2022/05/03 20:49:44;;;;;;;8.93;5.22;;;;;;;16.68;66.40;100149.34;5094751;28;20055;-75
2022/05/03 20:52:12;;;;;;;10.85;5.30;;;;;;;16.58;68.03;100151.97;5076514;28;20075;-75
2022/05/03 20:54:41;;;;;;;11.30;5.75;;;;;;;16.49;69.17;100153.63;5076851;28;20066;-75
2022/05/03 20:57:10;;;;;;;9.43;5.45;;;;;;;16.47;69.23;100149.38;5076414;28;20056;-75
2022/05/03 20:59:38;;;;;;;11.00;6.38;;;;;;;16.46;69.21;100148.53;5094539;28;20044;-75
2022/05/03 21:02:06;;;;;;;12.02;6.03;;;;;;;16.38;70.29;100150.16;5076566;28;20048;-74
2022/05/03 21:04:35;;;;;;;13.85;6.40;;;;;;;16.29;70.89;100141.88;5076244;28;20122;-75
2022/05/03 21:07:05;;;;;;;14.13;6.20;;;;;;;16.27;71.24;100149.25;5075882;28;20044;-73
2022/05/03 21:09:34;;;;;;;10.38;6.15;;;;;;;16.33;70.05;100147.88;5094960;28;20048;-71
2022/05/03 21:12:04;;;;;;;9.52;5.97;;;;;;;16.31;71.09;100139.09;5076233;28;20044;-72
2022/05/03 21:14:33;;;;;;;12.32;6.53;;;;;;;16.26;72.52;100147.53;5094609;28;20046;-72
2022/05/03 21:17:01;;;;;;;11.25;6.43;;;;;;;16.25;71.73;100145.84;5077169;28;20048;-70
2022/05/03 21:19:29;;;;;;;9.65;5.80;;;;;;;16.24;72.25;100143.28;5094949;28;20127;-69
2022/05/03 21:21:58;;;;;;;10.25;6.22;;;;;;;16.19;73.16;100145.50;5076904;28;20048;-68
2022/05/03 21:24:28;;;;;;;10.70;5.93;;;;;;;16.34;72.83;100151.44;5077209;28;20076;-69
2022/05/03 21:26:56;;;;;;;13.07;6.03;;;;;;;16.24;73.84;100154.91;5077222;28;20181;-68
2022/05/03 21:29:27;;;;;;;10.27;6.60;;;;;;;16.33;71.82;100153.25;5076899;28;20048;-71
2022/05/03 21:31:55;;;;;;;11.98;6.63;;;;;;;16.27;72.96;100156.47;5077076;28;20112;-71
2022/05/03 21:34:24;;;;;;;11.00;6.63;;;;;;;16.28;73.58;100161.72;5095012;28;20047;-70
2022/05/03 21:36:52;;;;;;;10.88;6.53;;;;;;;16.22;74.30;100166.78;5095273;28;20036;-70
2022/05/03 21:39:20;;;;;;;9.82;6.43;;;;;;;15.98;75.48;100161.63;5076683;28;20044;-69
2022/05/03 21:41:49;;;;;;;9.05;6.35;;;;;;;16.05;74.91;100167.34;5076984;28;20476;-69
2022/05/03 21:44:18;;;;;;;9.90;6.18;;;;;;;15.84;75.95;100168.19;5076861;28;20040;-69
2022/05/03 21:46:46;;;;;;;9.65;6.47;;;;;;;15.89;75.11;100165.94;5076728;28;20131;-68
2022/05/03 21:49:15;;;;;;;9.10;5.93;;;;;;;15.76;76.07;100165.25;5076810;28;20055;-68
2022/05/03 21:51:43;;;;;;;9.48;6.35;;;;;;;15.58;77.98;100166.75;5094838;28;20051;-68
2022/05/03 21:54:11;;;;;;;8.90;6.30;;;;;;;15.52;78.58;100161.88;5076615;28;20051;-69
2022/05/03 21:56:39;;;;;;;9.15;7.15;;;;;;;15.80;76.96;100161.31;5076404;28;20453;-68
2022/05/03 21:59:09;;;;;;;9.57;7.07;;;;;;;15.63;78.10;100165.44;5076735;28;20493;-68
2022/05/03 22:01:37;;;;;;;11.48;7.18;;;;;;;15.64;78.13;100167.16;5076250;28;20382;-69
2022/05/03 22:04:05;;;;;;;11.40;7.60;;;;;;;15.46;79.76;100166.78;5076428;28;20052;-69
2022/05/03 22:06:34;;;;;;;10.65;7.35;;;;;;;15.48;80.19;100165.81;5076167;28;20076;-69
2022/05/03 22:09:02;;;;;;;10.15;7.53;;;;;;;15.49;80.17;100167.50;5094554;28;20040;-70
2022/05/03 22:11:30;;;;;;;11.13;8.00;;;;;;;15.39;81.20;100170.94;5094272;28;20469;-70
2022/05/03 22:13:58;;;;;;;10.68;7.97;;;;;;;15.32;82.26;100164.34;5076325;28;20253;-69
2022/05/03 22:16:28;;;;;;;13.38;8.30;;;;;;;15.28;83.20;100168.28;5076080;28;20048;-69
2022/05/03 22:18:56;;;;;;;12.20;7.80;;;;;;;15.24;83.85;100168.63;5094481;28;20441;-68
2022/05/03 22:21:24;;;;;;;11.05;8.05;;;;;;;15.10;85.40;100167.91;5094046;28;20062;-69
2022/05/03 22:23:57;;;;;;;14.25;8.77;;;;;;;15.07;86.07;100172.69;5094187;28;20047;-68
2022/05/03 22:26:25;;;;;;;11.35;8.38;;;;;;;14.98;87.41;100170.75;5076032;28;20072;-69
2022/05/03 22:28:54;;;;;;;14.25;8.68;;;;;;;14.93;88.28;100176.47;5092996;28;20044;-69
2022/05/03 22:31:22;;;;;;;10.60;8.50;;;;;;;14.99;88.15;100183.19;5094038;28;20044;-69
2022/05/03 22:33:53;;;;;;;14.65;8.50;;;;;;;15.00;88.15;100184.91;5093885;28;20123;-69
2022/05/03 22:36:21;;;;;;;11.90;8.82;;;;;;;14.89;89.58;100188.44;5075943;28;20420;-69
2022/05/03 22:38:49;;;;;;;11.10;8.35;;;;;;;14.87;89.89;100188.56;5093804;28;20127;-71
2022/05/03 22:41:19;;;;;;;12.68;8.68;;;;;;;14.82;91.22;100180.00;5075821;28;20048;-69
2022/05/03 22:43:48;;;;;;;14.30;9.07;;;;;;;14.66;93.88;100187.53;5075923;28;20048;-68
2022/05/03 22:46:16;;;;;;;11.10;8.32;;;;;;;14.56;95.09;100186.56;5093946;28;20132;-70
2022/05/03 22:48:44;;;;;;;11.13;7.88;;;;;;;14.55;95.75;100179.47;5075486;28;20481;-69
2022/05/03 22:51:13;;;;;;;13.98;8.73;;;;;;;14.48;97.32;100184.50;5093909;28;20048;-69
2022/05/03 22:53:42;;;;;;;11.05;8.43;;;;;;;14.57;96.36;100185.56;5093511;28;20047;-68
2022/05/03 22:56:10;;;;;;;12.43;8.85;;;;;;;14.43;98.19;100188.44;5075663;28;20052;-68
2022/05/03 22:58:38;;;;;;;15.98;8.93;;;;;;;14.40;98.27;100191.38;5074778;28;20055;-68
2022/05/03 23:01:06;;;;;;;12.52;8.32;;;;;;;14.41;99.89;100202.00;5093565;28;20040;-68
2022/05/03 23:03:46;;;;;;;12.23;8.77;;;;;;;14.33;100.00;100199.88;5075277;28;20051;-71
2022/05/03 23:06:16;;;;;;;16.10;8.77;;;;;;;14.24;100.00;100195.22;5093603;28;20120;-72
2022/05/03 23:08:44;;;;;;;11.48;7.95;;;;;;;14.26;100.00;100197.78;5075220;28;20052;-70
2022/05/03 23:11:12;;;;;;;10.38;7.95;;;;;;;14.30;100.00;100200.13;5093557;28;20047;-69
2022/05/03 23:16:37;;;;;;;11.95;9.48;;;;;;;14.01;100.00;100199.66;5088535;28;20070;-68
2022/05/03 23:19:05;;;;;;;11.75;9.57;;;;;;;13.99;100.00;100204.28;5093002;28;20493;-68
2022/05/03 23:21:36;;;;;;;10.48;8.50;;;;;;;13.93;100.00;100193.16;5092780;28;20063;-68